createdAt,value
2018-08-22T00:01:30.820Z,1.10
2018-08-22T00:06:34.206Z,1.10
2018-08-22T00:11:37.534Z,1.10
2018-08-22T00:16:40.904Z,1.40
2018-08-22T00:21:44.193Z,1.20
2018-08-22T00:26:47.541Z,1.40
2018-08-22T00:31:50.846Z,1.00
2018-08-22T00:36:54.132Z,1.10
2018-08-22T00:41:57.521Z,1.10
2018-08-22T00:47:00.809Z,1.20
2018-08-22T00:52:04.184Z,1.07
2018-08-22T00:57:07.464Z,1.00
2018-08-22T01:02:10.773Z,0.93
2018-08-22T01:07:14.147Z,1.00
2018-08-22T01:12:17.477Z,1.10
2018-08-22T01:17:20.841Z,1.23
2018-08-22T01:22:24.342Z,1.10
2018-08-22T01:27:27.745Z,0.97
2018-08-22T01:32:31.064Z,1.20
2018-08-22T01:37:34.572Z,1.20
2018-08-22T01:42:37.925Z,1.13
2018-08-22T01:47:41.197Z,1.10
2018-08-22T01:52:44.634Z,1.23
2018-08-22T01:57:47.925Z,1.00
2018-08-22T02:02:51.358Z,0.90
2018-08-22T02:07:54.729Z,1.00
2018-08-22T02:12:58.225Z,0.90
2018-08-22T02:18:01.748Z,1.20
2018-08-22T02:23:05.219Z,1.10
2018-08-22T02:28:08.590Z,1.20
2018-08-22T02:33:12.923Z,1.03
2018-08-22T02:38:22.165Z,1.57
2018-08-22T02:43:25.877Z,0.97
2018-08-22T02:48:29.238Z,1.40
2018-08-22T02:53:32.917Z,1.20
2018-08-22T02:58:36.312Z,1.27
2018-08-22T03:03:39.734Z,1.10
2018-08-22T03:08:43.236Z,1.07
2018-08-22T03:13:46.600Z,1.23
2018-08-22T03:18:50.033Z,1.10
2018-08-22T03:23:53.446Z,1.37
2018-08-22T03:28:57.028Z,1.10
2018-08-22T03:34:00.389Z,1.30
2018-08-22T03:39:05.108Z,1.10
2018-08-22T03:44:08.466Z,1.30
2018-08-22T03:49:11.744Z,1.20
2018-08-22T03:54:15.032Z,1.30
2018-08-22T03:59:18.341Z,1.20
2018-08-22T04:04:21.865Z,1.30
2018-08-22T04:09:26.478Z,1.20
2018-08-22T04:14:29.835Z,1.10
2018-08-22T04:19:37.520Z,1.57
2018-08-22T04:24:40.923Z,1.10
2018-08-22T04:29:44.378Z,1.23
2018-08-22T04:34:48.317Z,1.30
2018-08-22T04:39:51.596Z,1.33
2018-08-22T04:44:54.887Z,1.20
2018-08-22T04:49:58.472Z,1.30
2018-08-22T04:55:01.806Z,1.27
2018-08-22T05:00:06.616Z,1.10
2018-08-22T05:05:10.800Z,1.40
2018-08-22T05:10:14.192Z,1.47
2018-08-22T05:15:17.485Z,1.23
2018-08-22T05:20:20.893Z,1.40
2018-08-22T05:25:27.093Z,1.40
2018-08-22T05:30:33.009Z,1.33
2018-08-22T05:35:36.777Z,1.20
2018-08-22T05:40:40.126Z,1.70
2018-08-22T05:45:43.512Z,1.37
2018-08-22T05:50:46.880Z,1.10
2018-08-22T05:55:50.265Z,1.60
2018-08-22T06:00:53.489Z,1.17
2018-08-22T06:05:56.819Z,1.20
2018-08-22T06:11:00.141Z,1.40
2018-08-22T06:16:03.469Z,1.80
2018-08-22T06:21:06.876Z,1.73
2018-08-22T06:26:10.208Z,1.50
2018-08-22T06:31:13.554Z,1.13
2018-08-22T06:36:16.944Z,1.63
2018-08-22T06:41:20.204Z,1.30
2018-08-22T06:46:23.513Z,1.30
2018-08-22T06:51:26.844Z,1.30
2018-08-22T06:56:30.276Z,1.40
2018-08-22T07:01:33.614Z,2.90
2018-08-22T07:06:36.930Z,2.00
2018-08-22T07:11:40.264Z,1.47
2018-08-22T07:16:43.677Z,1.10
2018-08-22T07:21:46.929Z,1.33
2018-08-22T07:26:50.302Z,4.63
2018-08-22T07:31:53.657Z,1.40
2018-08-22T07:36:57.025Z,1.57
2018-08-22T07:42:00.380Z,1.50
2018-08-22T07:47:03.993Z,1.70
2018-08-22T07:52:07.521Z,2.47
2018-08-22T07:57:11.254Z,1.50
2018-08-22T08:02:14.688Z,1.73
2018-08-22T08:07:18.105Z,1.57
2018-08-22T08:12:25.953Z,1.50
2018-08-22T08:17:29.246Z,2.20
2018-08-22T08:22:32.574Z,1.57
2018-08-22T08:27:35.938Z,1.03
2018-08-22T08:32:39.312Z,1.53
2018-08-22T08:37:42.701Z,1.30
2018-08-22T08:42:46.012Z,1.17
2018-08-22T08:47:49.419Z,1.20
2018-08-22T08:52:52.761Z,1.27
2018-08-22T08:57:56.133Z,1.00
2018-08-22T09:02:59.473Z,1.20
2018-08-22T09:08:02.837Z,1.17
2018-08-22T09:13:09.035Z,1.50
2018-08-22T09:18:12.386Z,1.10
2018-08-22T09:23:15.769Z,1.40
2018-08-22T09:28:19.212Z,1.33
2018-08-22T09:33:22.576Z,1.40
2018-08-22T09:38:25.937Z,1.40
2018-08-22T09:43:29.315Z,1.40
2018-08-22T09:48:32.661Z,3.23
2018-08-22T09:53:35.985Z,1.30
2018-08-22T09:58:39.321Z,1.50
2018-08-22T10:03:55.698Z,1.67
2018-08-22T10:09:04.141Z,1.90
2018-08-22T10:14:07.561Z,2.10
2018-08-22T10:19:11.055Z,1.27
2018-08-22T10:24:14.627Z,1.43
2018-08-22T10:29:17.984Z,1.37
2018-08-22T10:34:21.356Z,1.40
2018-08-22T10:39:24.719Z,1.87
2018-08-22T10:44:28.105Z,1.63
2018-08-22T10:49:31.713Z,1.70
2018-08-22T10:54:35.041Z,1.70
2018-08-22T10:59:38.913Z,1.67
2018-08-22T11:04:43.043Z,1.83
2018-08-22T11:09:47.530Z,1.87
2018-08-22T11:14:51.697Z,2.33
2018-08-22T11:19:55.727Z,2.90
2018-08-22T11:25:16.090Z,2.97
2018-08-22T11:30:36.879Z,3.03
2018-08-22T11:35:38.831Z,2.50
2018-08-22T11:40:43.074Z,2.97
2018-08-22T11:45:46.440Z,3.20
2018-08-22T11:50:49.923Z,3.77
2018-08-22T11:55:53.424Z,3.20
2018-08-22T12:00:56.739Z,2.90
2018-08-22T12:06:00.195Z,2.40
2018-08-22T12:11:03.672Z,2.57
2018-08-22T12:16:07.019Z,3.23
2018-08-22T12:21:10.390Z,3.13
2018-08-22T12:26:13.722Z,2.83
2018-08-22T12:31:17.067Z,3.00
2018-08-22T12:36:20.428Z,3.23
2018-08-22T12:41:24.146Z,3.27
2018-08-22T12:46:27.451Z,3.10
2018-08-22T12:51:30.840Z,3.33
2018-08-22T12:56:34.156Z,3.10
2018-08-22T13:01:37.528Z,3.57
2018-08-22T13:06:40.938Z,3.70
2018-08-22T13:11:44.305Z,3.30
2018-08-22T13:16:47.676Z,3.00
2018-08-22T13:21:51.023Z,3.50
2018-08-22T13:26:54.351Z,3.43
2018-08-22T13:31:57.743Z,4.03
2018-08-22T13:37:01.067Z,3.20
2018-08-22T13:42:04.503Z,3.40
2018-08-22T13:47:07.850Z,3.10
2018-08-22T13:52:11.299Z,3.27
2018-08-22T13:57:14.668Z,3.30
2018-08-22T14:02:18.107Z,3.43
2018-08-22T14:07:21.718Z,3.50
2018-08-22T14:12:25.113Z,3.43
2018-08-22T14:17:28.489Z,3.47
2018-08-22T14:22:31.878Z,3.30
2018-08-22T14:27:35.192Z,4.03
2018-08-22T14:32:38.553Z,3.13
2018-08-22T14:37:41.924Z,3.30
2018-08-22T14:42:45.341Z,3.73
2018-08-22T14:47:48.687Z,3.90
2018-08-22T14:52:52.074Z,3.70
2018-08-22T14:57:55.509Z,3.70
2018-08-22T15:02:59.070Z,3.93
2018-08-22T15:08:02.215Z,3.30
2018-08-22T15:13:05.841Z,4.00
2018-08-22T15:18:09.249Z,13.20
2018-08-22T15:23:12.661Z,8.00
2018-08-22T15:28:16.156Z,4.20
2018-08-22T15:33:19.569Z,4.00
2018-08-22T15:38:22.942Z,4.37
2018-08-22T15:43:26.287Z,4.00
2018-08-22T15:48:29.682Z,3.90
2018-08-22T15:53:33.055Z,4.03
2018-08-22T15:58:36.401Z,7.23
2018-08-22T16:03:39.805Z,4.10
2018-08-22T16:08:43.005Z,4.03
2018-08-22T16:13:46.370Z,4.43
2018-08-22T16:18:49.785Z,4.87
2018-08-22T16:23:53.109Z,4.17
2018-08-22T16:28:58.214Z,4.20
2018-08-22T16:34:01.585Z,3.97
2018-08-22T16:39:06.437Z,3.57
2018-08-22T16:44:09.970Z,4.37
2018-08-22T16:49:13.431Z,4.50
2018-08-22T16:54:17.106Z,4.10
2018-08-22T16:59:21.260Z,4.60
2018-08-22T17:04:24.614Z,4.10
2018-08-22T17:09:27.963Z,4.87
2018-08-22T17:14:31.370Z,6.50
2018-08-22T17:19:34.701Z,4.10
2018-08-22T17:24:38.089Z,4.20
2018-08-22T17:29:42.078Z,4.10
2018-08-22T17:34:45.692Z,3.90
2018-08-22T17:39:49.148Z,4.33
2018-08-22T17:44:52.537Z,4.40
2018-08-22T17:50:07.808Z,3.70
2018-08-22T17:55:11.228Z,4.00
2018-08-22T18:00:14.769Z,4.00
2018-08-22T18:05:18.343Z,4.50
2018-08-22T18:10:21.937Z,4.23
2018-08-22T18:15:25.305Z,4.50
2018-08-22T18:20:28.636Z,4.13
2018-08-22T18:25:31.978Z,4.00
2018-08-22T18:30:35.575Z,4.43
2018-08-22T18:35:43.294Z,5.13
2018-08-22T18:41:02.389Z,5.57
2018-08-22T18:46:06.973Z,4.43
2018-08-22T18:51:10.187Z,5.17
2018-08-22T18:56:15.856Z,4.87
2018-08-22T19:01:20.381Z,4.63
2018-08-22T19:06:24.937Z,5.23
2018-08-22T19:11:28.957Z,10.80
2018-08-22T19:16:32.360Z,5.33
2018-08-22T19:21:35.506Z,4.10
2018-08-22T19:26:38.669Z,5.50
2018-08-22T19:31:47.286Z,7.20
2018-08-22T19:36:50.323Z,5.57
2018-08-22T19:41:53.593Z,5.87
2018-08-22T19:46:56.671Z,5.00
2018-08-22T19:51:59.876Z,5.77
2018-08-22T19:57:02.924Z,4.63
2018-08-22T20:02:06.221Z,5.00
2018-08-22T20:07:09.238Z,5.90
2018-08-22T20:12:12.794Z,5.07
2018-08-22T20:17:21.461Z,5.30
2018-08-22T20:22:30.877Z,10.27
2018-08-22T20:27:34.050Z,6.37
2018-08-22T20:32:37.122Z,5.30
2018-08-22T20:37:40.327Z,5.03
2018-08-22T20:42:43.836Z,5.30
2018-08-22T20:47:52.830Z,5.77
2018-08-22T20:53:04.006Z,5.23
2018-08-22T20:58:08.765Z,5.30
2018-08-22T21:03:11.770Z,5.70
2018-08-22T21:08:14.805Z,6.33
2018-08-22T21:13:23.461Z,5.90
2018-08-22T21:18:26.822Z,6.10
2018-08-22T21:23:29.814Z,7.07
2018-08-22T21:28:37.509Z,6.53
2018-08-22T21:33:43.440Z,7.27
2018-08-22T21:38:46.451Z,7.63
2018-08-22T21:43:49.548Z,8.73
2018-08-22T21:48:52.905Z,8.43
2018-08-22T21:53:56.032Z,11.03
2018-08-22T21:58:59.054Z,11.30
2018-08-22T22:04:02.087Z,11.73
2018-08-22T22:09:05.989Z,13.03
2018-08-22T22:14:25.531Z,15.20
2018-08-22T22:19:31.051Z,14.57
2018-08-22T22:24:44.872Z,15.10
2018-08-22T22:29:48.014Z,16.00
2018-08-22T22:34:51.095Z,15.20
2018-08-22T22:39:54.098Z,17.77
2018-08-22T22:44:58.876Z,15.90
2018-08-22T22:50:02.765Z,15.90
2018-08-22T22:55:07.303Z,16.60
2018-08-22T23:00:13.110Z,15.80
2018-08-22T23:05:16.113Z,18.77
2018-08-22T23:10:19.117Z,18.80
2018-08-22T23:15:26.468Z,19.50
2018-08-22T23:20:50.018Z,20.33
2018-08-22T23:25:53.530Z,19.40
2018-08-22T23:30:56.507Z,21.60
2018-08-22T23:35:59.494Z,21.13
2018-08-22T23:41:02.937Z,21.70
2018-08-22T23:46:07.658Z,21.60
2018-08-22T23:51:11.821Z,21.23
2018-08-22T23:56:24.049Z,21.60
